Time;durP1;ratioP1;P1;durP2;ratioP2;P2;SDS_P1;SDS_P2;PMS_P1;PMS_P2;Temp;Humidity;BMP_temperature;BMP_pressure;BME280_temperature;BME280_humidity;BME280_pressure;Samples;Min_cycle;Max_cycle;Signal;HPM_P1;HPM_P2
2021/12/13 00:00:02;;;;;;;7.82;5.60;;;;;;;;;;4994624;28;20044;-80
2021/12/13 00:02:45;;;;;;;8.38;6.30;;;;;;;;;;4994821;28;20397;-79
2021/12/13 00:05:21;;;;;;;6.85;5.88;;;;;;;;;;4994522;28;20541;-79
2021/12/13 00:07:53;;;;;;;6.47;5.80;;;;;;;;;;4994644;28;20433;-79
2021/12/13 00:10:21;;;;;;;7.00;5.32;;;;;;;;;;4994431;28;20077;-79
2021/12/13 00:12:50;;;;;;;6.68;5.97;;;;;;;;;;4994596;28;20030;-79
2021/12/13 00:15:24;;;;;;;6.55;5.38;;;;;;;;;;4994782;28;20081;-79
2021/12/13 00:17:52;;;;;;;6.25;5.13;;;;;;;;;;4994438;28;20030;-82
2021/12/13 00:20:28;;;;;;;6.30;4.97;;;;;;;;;;4994279;28;20192;-78
2021/12/13 00:22:55;;;;;;;6.57;5.05;;;;;;;;;;4994309;28;20026;-80
2021/12/13 00:25:24;;;;;;;6.05;4.60;;;;;;;;;;4994699;28;20129;-79
2021/12/13 00:27:55;;;;;;;6.50;4.30;;;;;;;;;;4994214;28;20055;-81
2021/12/13 00:30:28;;;;;;;6.47;5.45;;;;;;;;;;4994110;28;20080;-81
2021/12/13 00:33:06;;;;;;;6.28;5.03;;;;;;;;;;4994398;28;20034;-78
2021/12/13 00:35:44;;;;;;;5.75;3.75;;;;;;;;;;4994219;28;20493;-81
2021/12/13 00:38:11;;;;;;;5.68;4.20;;;;;;;;;;4993905;28;20050;-81
2021/12/13 00:40:43;;;;;;;5.57;4.90;;;;;;;;;;4994053;28;20056;-77
2021/12/13 00:43:12;;;;;;;4.75;3.58;;;;;;;;;;4994061;28;20050;-79
2021/12/13 00:45:47;;;;;;;6.15;4.45;;;;;;;;;;4994054;28;20398;-78
2021/12/13 00:48:13;;;;;;;5.88;4.40;;;;;;;;;;4994106;28;20132;-79
2021/12/13 00:50:42;;;;;;;5.68;4.57;;;;;;;;;;4994035;28;20027;-79
2021/12/13 00:53:10;;;;;;;5.50;4.40;;;;;;;;;;4994075;28;20479;-78
2021/12/13 00:55:36;;;;;;;5.78;4.00;;;;;;;;;;4993886;28;20093;-80
2021/12/13 00:58:10;;;;;;;4.60;4.03;;;;;;;;;;4993930;28;20023;-80
2021/12/13 01:00:40;;;;;;;3.65;3.03;;;;;;;;;;4995013;28;20386;-78
2021/12/13 01:03:11;;;;;;;4.85;3.88;;;;;;;;;;4997960;28;20429;-79
2021/12/13 01:05:56;;;;;;;5.00;3.58;;;;;;;;;;4997916;28;20034;-76
2021/12/13 01:08:52;;;;;;;6.22;4.63;;;;;;;;;;4997731;28;20053;-80
2021/12/13 01:11:36;;;;;;;4.57;3.40;;;;;;;;;;4997619;28;20033;-79
2021/12/13 01:14:21;;;;;;;5.78;3.50;;;;;;;;;;4997986;28;20034;-77
2021/12/13 01:19:51;;;;;;;6.40;4.60;;;;;;;;;;4997860;28;20508;-81
2021/12/13 01:22:38;;;;;;;4.18;3.40;;;;;;;;;;4997631;28;20037;-79
2021/12/13 01:25:18;;;;;;;4.78;3.78;;;;;;;;;;4997889;28;20474;-84
2021/12/13 01:27:47;;;;;;;4.88;3.65;;;;;;;;;;4997404;28;20027;-80
2021/12/13 01:30:15;;;;;;;5.95;4.20;;;;;;;;;;4997526;28;20450;-77
2021/12/13 01:32:44;;;;;;;5.38;3.95;;;;;;;;;;4997430;28;20101;-80
2021/12/13 01:35:15;;;;;;;4.75;3.95;;;;;;;;;;4997319;28;20034;-81
2021/12/13 01:37:41;;;;;;;6.20;3.80;;;;;;;;;;4997540;28;20022;-81
2021/12/13 01:40:10;;;;;;;4.95;3.67;;;;;;;;;;4997213;28;20068;-78
2021/12/13 01:42:37;;;;;;;5.50;3.33;;;;;;;;;;4997214;28;20366;-82
2021/12/13 01:45:12;;;;;;;4.88;3.55;;;;;;;;;;4997135;28;20058;-80
2021/12/13 01:47:40;;;;;;;4.70;3.30;;;;;;;;;;4997185;28;20038;-79
2021/12/13 01:50:15;;;;;;;3.72;2.80;;;;;;;;;;4997152;28;20056;-81
2021/12/13 01:52:42;;;;;;;3.85;3.08;;;;;;;;;;5012183;28;20026;-79
2021/12/13 01:55:21;;;;;;;3.75;3.05;;;;;;;;;;4997028;28;20061;-78
2021/12/13 01:57:53;;;;;;;4.18;3.70;;;;;;;;;;4997100;28;20037;-78
2021/12/13 02:00:43;;;;;;;3.85;3.05;;;;;;;;;;4996910;28;20382;-80
2021/12/13 02:03:10;;;;;;;4.47;3.10;;;;;;;;;;4996781;28;20034;-83
2021/12/13 02:05:36;;;;;;;4.65;2.78;;;;;;;;;;4996892;28;20035;-80
2021/12/13 02:08:08;;;;;;;3.75;2.95;;;;;;;;;;4996766;28;20038;-82
2021/12/13 02:10:46;;;;;;;4.32;3.13;;;;;;;;;;4996693;28;20030;-81
2021/12/13 02:13:22;;;;;;;3.83;2.90;;;;;;;;;;4996629;28;20035;-82
2021/12/13 02:18:37;;;;;;;2.35;2.10;;;;;;;;;;4996626;28;20193;-78
2021/12/13 02:21:11;;;;;;;3.53;2.80;;;;;;;;;;5011688;28;20033;-79
2021/12/13 02:23:39;;;;;;;3.10;2.63;;;;;;;;;;4996566;28;20027;-82
2021/12/13 02:26:05;;;;;;;4.10;2.95;;;;;;;;;;4996554;28;20022;-83
2021/12/13 02:28:34;;;;;;;4.47;2.85;;;;;;;;;;4996472;28;20421;-79
2021/12/13 02:31:09;;;;;;;3.42;2.72;;;;;;;;;;4996495;28;20026;-80
2021/12/13 02:33:40;;;;;;;3.25;1.90;;;;;;;;;;4996401;28;20486;-81
2021/12/13 02:36:09;;;;;;;3.08;2.35;;;;;;;;;;4996344;28;20026;-79
2021/12/13 02:38:37;;;;;;;3.72;2.80;;;;;;;;;;4996597;28;20080;-79
2021/12/13 02:41:04;;;;;;;4.10;2.30;;;;;;;;;;4996307;28;20030;-80
2021/12/13 02:43:33;;;;;;;3.65;2.38;;;;;;;;;;4996080;28;20058;-81
2021/12/13 02:46:00;;;;;;;4.15;3.03;;;;;;;;;;4996064;28;20504;-81
2021/12/13 02:48:32;;;;;;;3.67;2.25;;;;;;;;;;5011295;28;20050;-80
2021/12/13 02:51:04;;;;;;;1.48;1.27;;;;;;;;;;4996489;28;20035;-80
2021/12/13 02:53:39;;;;;;;3.00;2.00;;;;;;;;;;4996121;28;20023;-83
2021/12/13 02:56:06;;;;;;;2.85;2.15;;;;;;;;;;4996601;28;20488;-81
2021/12/13 02:58:33;;;;;;;3.38;2.40;;;;;;;;;;4995982;28;20031;-81
2021/12/13 03:00:59;;;;;;;3.20;2.25;;;;;;;;;;4996013;28;20034;-79
2021/12/13 03:03:28;;;;;;;3.65;2.00;;;;;;;;;;4995691;28;20039;-79
2021/12/13 03:05:55;;;;;;;3.80;2.63;;;;;;;;;;4996048;28;20042;-78
2021/12/13 03:08:25;;;;;;;2.50;1.90;;;;;;;;;;5010816;28;20026;-81
2021/12/13 03:10:56;;;;;;;3.25;2.17;;;;;;;;;;5010897;28;20417;-81
2021/12/13 03:13:23;;;;;;;3.42;2.70;;;;;;;;;;4995584;28;20027;-81
2021/12/13 03:15:58;;;;;;;2.63;1.50;;;;;;;;;;4995637;28;20030;-85
2021/12/13 03:18:29;;;;;;;2.90;2.05;;;;;;;;;;5010574;28;20026;-78
2021/12/13 03:21:13;;;;;;;3.63;2.85;;;;;;;;;;4995533;28;20509;-79
2021/12/13 03:23:49;;;;;;;3.80;2.97;;;;;;;;;;4995201;28;20029;-78
2021/12/13 03:26:35;;;;;;;3.35;2.78;;;;;;;;;;4995685;28;20026;-80
2021/12/13 03:29:20;;;;;;;3.22;2.25;;;;;;;;;;4995377;28;20123;-81
2021/12/13 03:31:46;;;;;;;;;;;;;;;;;;4995801;28;20022;-80
2021/12/13 03:34:15;;;;;;;2.33;1.63;;;;;;;;;;4995248;28;20308;-80
2021/12/13 03:37:01;;;;;;;3.75;2.47;;;;;;;;;;5010587;28;20026;-80
2021/12/13 03:39:32;;;;;;;2.60;1.83;;;;;;;;;;4995006;28;20031;-79
2021/12/13 03:41:59;;;;;;;2.75;2.00;;;;;;;;;;4995087;28;20022;-80
2021/12/13 03:44:28;;;;;;;3.53;2.38;;;;;;;;;;4994838;28;20374;-80
2021/12/13 03:46:56;;;;;;;3.53;2.42;;;;;;;;;;4995072;28;20153;-80
2021/12/13 03:49:24;;;;;;;2.95;2.58;;;;;;;;;;5010069;28;20030;-78
2021/12/13 03:51:54;;;;;;;4.13;2.72;;;;;;;;;;4994997;28;20045;-84
2021/12/13 03:54:20;;;;;;;3.22;2.20;;;;;;;;;;4994904;28;20026;-79
2021/12/13 03:56:49;;;;;;;4.03;2.22;;;;;;;;;;5010028;28;20030;-82
2021/12/13 03:59:17;;;;;;;4.95;3.15;;;;;;;;;;4994698;28;20080;-79
2021/12/13 04:01:43;;;;;;;3.45;2.28;;;;;;;;;;4994723;28;20026;-82
2021/12/13 04:04:13;;;;;;;3.55;2.67;;;;;;;;;;4994710;28;20030;-82
2021/12/13 04:06:59;;;;;;;4.07;2.40;;;;;;;;;;4994683;28;20057;-80
2021/12/13 04:09:28;;;;;;;2.97;2.33;;;;;;;;;;4994651;28;20421;-81
2021/12/13 04:11:56;;;;;;;3.80;2.63;;;;;;;;;;4994515;28;20030;-80
2021/12/13 04:14:27;;;;;;;3.00;2.30;;;;;;;;;;4994393;28;20038;-79
2021/12/13 04:17:19;;;;;;;4.53;2.58;;;;;;;;;;4994346;28;20029;-85
2021/12/13 04:19:48;;;;;;;3.35;2.65;;;;;;;;;;4994383;28;20039;-76
2021/12/13 04:22:17;;;;;;;4.57;2.88;;;;;;;;;;4994606;28;20026;-81
2021/12/13 04:24:53;;;;;;;4.97;3.55;;;;;;;;;;4994406;28;20049;-82
2021/12/13 04:27:28;;;;;;;3.85;3.42;;;;;;;;;;4994255;28;20489;-80
2021/12/13 04:29:57;;;;;;;4.05;2.85;;;;;;;;;;4994169;28;20497;-79
2021/12/13 04:32:26;;;;;;;4.57;3.33;;;;;;;;;;5009436;28;20032;-82
2021/12/13 04:34:54;;;;;;;3.90;2.67;;;;;;;;;;4994134;28;20022;-79
2021/12/13 04:37:23;;;;;;;3.90;2.47;;;;;;;;;;4994100;28;20031;-80
2021/12/13 04:39:52;;;;;;;4.53;3.03;;;;;;;;;;4994024;28;20030;-82
2021/12/13 04:42:19;;;;;;;3.08;2.47;;;;;;;;;;4994209;28;20030;-80
2021/12/13 04:44:50;;;;;;;3.38;2.60;;;;;;;;;;4994116;28;20497;-82
2021/12/13 04:47:22;;;;;;;3.13;2.60;;;;;;;;;;4994314;28;20488;-83
2021/12/13 04:49:53;;;;;;;3.97;2.38;;;;;;;;;;4994086;28;20551;-81
2021/12/13 04:52:20;;;;;;;4.03;3.13;;;;;;;;;;4993712;28;20202;-84
2021/12/13 04:54:51;;;;;;;3.85;2.85;;;;;;;;;;5009087;28;20386;-81
2021/12/13 04:57:18;;;;;;;4.47;3.28;;;;;;;;;;4994021;28;20032;-80
2021/12/13 04:59:53;;;;;;;4.15;2.95;;;;;;;;;;5008633;28;20038;-81
2021/12/13 05:02:20;;;;;;;5.65;3.58;;;;;;;;;;5009035;28;20030;-78
2021/12/13 05:04:50;;;;;;;5.03;3.70;;;;;;;;;;4994117;28;20038;-78
2021/12/13 05:07:18;;;;;;;4.93;3.75;;;;;;;;;;4995999;28;20069;-79
2021/12/13 05:09:46;;;;;;;4.35;3.60;;;;;;;;;;4996091;28;20023;-80
2021/12/13 05:12:14;;;;;;;4.20;3.30;;;;;;;;;;4995610;28;20030;-79
2021/12/13 05:14:44;;;;;;;5.07;3.63;;;;;;;;;;5011533;28;20022;-81
2021/12/13 05:17:41;;;;;;;;;;;;;;;;;;;;;
2021/12/13 05:20:29;;;;;;;5.00;3.20;;;;;;;;;;4990672;28;20064;-81
2021/12/13 05:23:01;;;;;;;4.72;3.53;;;;;;;;;;5010963;28;20030;-82
2021/12/13 05:25:30;;;;;;;4.55;3.17;;;;;;;;;;4995092;28;20045;-79
2021/12/13 05:28:16;;;;;;;4.68;3.03;;;;;;;;;;4995246;28;20032;-82
2021/12/13 05:31:01;;;;;;;3.55;2.63;;;;;;;;;;4985532;28;20045;-80
2021/12/13 05:33:30;;;;;;;5.63;4.03;;;;;;;;;;5010730;28;20018;-81
2021/12/13 05:35:58;;;;;;;3.03;2.25;;;;;;;;;;5010676;28;20038;-81
2021/12/13 05:38:30;;;;;;;3.95;2.80;;;;;;;;;;5010278;28;20437;-78
2021/12/13 05:40:57;;;;;;;4.45;3.00;;;;;;;;;;4995247;28;20031;-81
2021/12/13 05:43:29;;;;;;;5.72;3.40;;;;;;;;;;4995061;28;20061;-82
2021/12/13 05:46:02;;;;;;;4.97;3.97;;;;;;;;;;5009858;28;20030;-79
2021/12/13 05:48:34;;;;;;;4.95;3.60;;;;;;;;;;5013126;28;20073;-79
2021/12/13 05:51:04;;;;;;;4.03;3.38;;;;;;;;;;5013531;28;20497;-78
2021/12/13 05:53:35;;;;;;;4.47;3.08;;;;;;;;;;5012778;28;20465;-80
2021/12/13 05:56:06;;;;;;;5.28;3.40;;;;;;;;;;4996930;28;20041;-80
2021/12/13 05:58:32;;;;;;;4.40;3.15;;;;;;;;;;4997058;28;20037;-81
2021/12/13 06:01:00;;;;;;;7.57;4.90;;;;;;;;;;4997185;28;20078;-80
2021/12/13 06:03:31;;;;;;;5.07;3.60;;;;;;;;;;5012022;28;20026;-83
2021/12/13 06:06:04;;;;;;;3.78;2.65;;;;;;;;;;4996705;28;20062;-80
2021/12/13 06:08:33;;;;;;;4.38;3.47;;;;;;;;;;4996935;28;20577;-80
2021/12/13 06:11:04;;;;;;;5.47;3.15;;;;;;;;;;4996911;28;20026;-81
2021/12/13 06:13:42;;;;;;;5.78;4.20;;;;;;;;;;5012058;28;20053;-80
2021/12/13 06:16:33;;;;;;;5.35;2.92;;;;;;;;;;4996926;28;20034;-77
2021/12/13 06:19:11;;;;;;;4.65;3.70;;;;;;;;;;4989688;28;20039;-69
2021/12/13 06:21:50;;;;;;;5.90;3.67;;;;;;;;;;5011706;28;20489;-84
2021/12/13 06:24:23;;;;;;;4.35;3.58;;;;;;;;;;4996500;28;20030;-83
2021/12/13 06:26:49;;;;;;;4.68;3.05;;;;;;;;;;5011833;28;20030;-77
2021/12/13 06:29:19;;;;;;;6.00;3.95;;;;;;;;;;5008917;28;20034;-79
2021/12/13 06:31:46;;;;;;;7.80;4.97;;;;;;;;;;5015220;28;20053;-81
2021/12/13 06:34:16;;;;;;;5.22;3.83;;;;;;;;;;5013691;28;20026;-79
2021/12/13 06:36:45;;;;;;;4.72;3.97;;;;;;;;;;5012718;28;20555;-79
2021/12/13 06:39:14;;;;;;;4.68;3.78;;;;;;;;;;5040223;28;20092;-79
2021/12/13 06:41:41;;;;;;;6.18;4.57;;;;;;;;;;5033942;28;20072;-81
2021/12/13 06:44:26;;;;;;;4.10;2.50;;;;;;;;;;5030835;28;20112;-81
2021/12/13 06:47:06;;;;;;;8.80;6.32;;;;;;;;;;5017211;28;20866;-80
2021/12/13 06:49:38;;;;;;;4.47;3.15;;;;;;;;;;5012415;28;20026;-79
2021/12/13 06:52:11;;;;;;;4.78;3.38;;;;;;;;;;5013908;28;20022;-80
2021/12/13 06:54:42;;;;;;;5.40;3.63;;;;;;;;;;5013239;28;20030;-80
2021/12/13 06:57:14;;;;;;;4.60;2.90;;;;;;;;;;5014164;28;20088;-83
2021/12/13 07:00:00;;;;;;;5.90;3.25;;;;;;;;;;5015684;28;20057;-79
2021/12/13 07:02:28;;;;;;;6.13;4.18;;;;;;;;;;4993924;28;20019;-80
2021/12/13 07:05:01;;;;;;;4.00;2.35;;;;;;;;;;4993947;28;20096;-81
2021/12/13 07:07:33;;;;;;;7.05;4.40;;;;;;;;;;5011547;28;20121;-81
2021/12/13 07:10:04;;;;;;;6.13;4.05;;;;;;;;;;4997236;28;20042;-84
2021/12/13 07:12:31;;;;;;;8.13;5.18;;;;;;;;;;5007479;28;20025;-79
2021/12/13 07:14:58;;;;;;;6.10;4.57;;;;;;;;;;5035876;28;20029;-81
2021/12/13 07:17:31;;;;;;;3.55;3.00;;;;;;;;;;5034281;28;20087;-80
2021/12/13 07:19:58;;;;;;;3.88;2.65;;;;;;;;;;5011250;28;20037;-81
2021/12/13 07:22:29;;;;;;;5.10;3.45;;;;;;;;;;5014460;28;20054;-80
2021/12/13 07:25:08;;;;;;;4.90;2.83;;;;;;;;;;5028886;28;20488;-82
2021/12/13 07:27:35;;;;;;;4.65;2.97;;;;;;;;;;5012092;28;20030;-82
2021/12/13 07:30:27;;;;;;;7.10;5.05;;;;;;;;;;5011015;28;20033;-83
2021/12/13 07:32:58;;;;;;;5.07;3.30;;;;;;;;;;5008528;28;20073;-81
2021/12/13 07:35:24;;;;;;;5.63;3.45;;;;;;;;;;5013071;28;20041;-77
2021/12/13 07:38:09;;;;;;;4.78;2.70;;;;;;;;;;5012765;28;20033;-82
2021/12/13 07:40:35;;;;;;;;;;;;;;;;;;5025661;28;20086;-83
2021/12/13 07:43:05;;;;;;;2.80;2.20;;;;;;;;;;5015622;28;20000;-83
2021/12/13 07:45:41;;;;;;;3.63;2.35;;;;;;;;;;5012568;28;20492;-80
2021/12/13 07:48:10;;;;;;;7.47;5.10;;;;;;;;;;5010734;28;20021;-77
2021/12/13 07:50:37;;;;;;;4.43;3.50;;;;;;;;;;5012903;28;20033;-81
2021/12/13 07:53:07;;;;;;;4.47;3.33;;;;;;;;;;5015779;28;20034;-84
2021/12/13 07:55:34;;;;;;;5.07;3.13;;;;;;;;;;5025724;28;20037;-81
2021/12/13 07:58:02;;;;;;;6.63;3.65;;;;;;;;;;5027743;28;20021;-77
2021/12/13 08:00:32;;;;;;;5.32;3.72;;;;;;;;;;5012403;28;20447;-80
2021/12/13 08:03:17;;;;;;;3.15;2.13;;;;;;;;;;5009256;28;20026;-80
2021/12/13 08:05:48;;;;;;;7.20;3.85;;;;;;;;;;5015185;28;20053;-73
2021/12/13 08:08:25;;;;;;;4.55;3.22;;;;;;;;;;5027664;28;20053;-84
2021/12/13 08:10:53;;;;;;;4.18;2.60;;;;;;;;;;5011470;28;20489;-79
2021/12/13 08:13:21;;;;;;;5.78;3.22;;;;;;;;;;5017829;28;20077;-76
2021/12/13 08:16:17;;;;;;;6.90;4.00;;;;;;;;;;5031938;28;20392;-78
2021/12/13 08:18:44;;;;;;;7.43;4.60;;;;;;;;;;5023122;28;20037;-79
2021/12/13 08:21:23;;;;;;;8.30;5.63;;;;;;;;;;5028985;28;20033;-78
2021/12/13 08:23:54;;;;;;;7.22;4.78;;;;;;;;;;5012473;28;20041;-76
2021/12/13 08:26:38;;;;;;;7.35;4.22;;;;;;;;;;5011655;28;20034;-78
2021/12/13 08:29:10;;;;;;;3.55;2.47;;;;;;;;;;4992285;28;20030;-79
2021/12/13 08:31:39;;;;;;;5.13;3.92;;;;;;;;;;4992323;28;20050;-75
2021/12/13 08:34:11;;;;;;;5.20;3.28;;;;;;;;;;4991959;28;20034;-80
2021/12/13 08:36:42;;;;;;;5.25;3.38;;;;;;;;;;5008851;28;20030;-76
2021/12/13 08:39:13;;;;;;;4.68;3.28;;;;;;;;;;5011577;28;20092;-76
2021/12/13 08:41:47;;;;;;;4.97;3.17;;;;;;;;;;5012104;28;20084;-78
2021/12/13 08:44:13;;;;;;;5.40;3.45;;;;;;;;;;5012467;28;20046;-79
2021/12/13 08:46:42;;;;;;;5.57;4.18;;;;;;;;;;5010755;28;20385;-78
2021/12/13 08:49:19;;;;;;;6.63;3.70;;;;;;;;;;5023151;28;20496;-81
2021/12/13 08:52:07;;;;;;;10.43;6.80;;;;;;;;;;5031683;28;20037;-83
2021/12/13 08:54:52;;;;;;;5.82;3.78;;;;;;;;;;5031841;28;20104;-75
2021/12/13 08:57:44;;;;;;;6.28;4.05;;;;;;;;;;5020043;28;20077;-80
2021/12/13 09:00:13;;;;;;;6.82;4.50;;;;;;;;;;5009616;28;20092;-80
2021/12/13 09:02:58;;;;;;;9.15;5.38;;;;;;;;;;5020069;28;20021;-78
2021/12/13 09:05:24;;;;;;;;;;;;;;;;;;5011660;28;20041;-78
2021/12/13 09:07:56;;;;;;;6.68;4.60;;;;;;;;;;5011361;28;19905;-77
2021/12/13 09:10:35;;;;;;;7.10;5.63;;;;;;;;;;5011015;28;20030;-80
2021/12/13 09:13:01;;;;;;;7.13;5.93;;;;;;;;;;5010957;28;20038;-78
2021/12/13 09:15:30;;;;;;;4.75;3.50;;;;;;;;;;5010581;28;20893;-81
2021/12/13 09:17:56;;;;;;;5.25;3.88;;;;;;;;;;5010515;28;20511;-79
2021/12/13 09:20:28;;;;;;;6.50;5.20;;;;;;;;;;5011316;28;20508;-77
2021/12/13 09:23:10;;;;;;;7.28;4.68;;;;;;;;;;5029151;28;20396;-76
2021/12/13 09:25:39;;;;;;;5.25;3.67;;;;;;;;;;5031028;28;20501;-82
2021/12/13 09:28:26;;;;;;;6.72;4.43;;;;;;;;;;5023980;28;20033;-78
2021/12/13 09:31:05;;;;;;;6.97;5.18;;;;;;;;;;5019887;28;20061;-82
2021/12/13 09:33:43;;;;;;;10.98;7.80;;;;;;;;;;5018020;28;20053;-79
2021/12/13 09:36:09;;;;;;;7.90;5.72;;;;;;;;;;5014276;28;20034;-72
2021/12/13 09:38:53;;;;;;;7.25;5.80;;;;;;;;;;5022860;28;20107;-77
2021/12/13 09:41:27;;;;;;;10.55;7.75;;;;;;;;;;5034584;28;20118;-79
2021/12/13 09:44:02;;;;;;;6.45;5.38;;;;;;;;;;5034634;28;20424;-78
2021/12/13 09:46:32;;;;;;;5.00;4.50;;;;;;;;;;5029180;28;20111;-78
2021/12/13 09:49:00;;;;;;;4.95;3.85;;;;;;;;;;5014492;28;20030;-83
2021/12/13 09:51:36;;;;;;;8.40;5.70;;;;;;;;;;5020674;28;20034;-79
2021/12/13 09:54:05;;;;;;;5.20;4.22;;;;;;;;;;5023988;28;20381;-82
2021/12/13 09:56:36;;;;;;;8.60;6.30;;;;;;;;;;5021921;28;20421;-83
2021/12/13 09:59:06;;;;;;;8.23;5.28;;;;;;;;;;5022523;28;20477;-83
2021/12/13 10:01:51;;;;;;;6.60;4.00;;;;;;;;;;5022786;28;20028;-78
2021/12/13 10:04:17;;;;;;;;;;;;;;;;;;5019777;28;20064;-81
2021/12/13 10:06:46;;;;;;;10.27;6.78;;;;;;;;;;5025651;28;20006;-77
2021/12/13 10:09:16;;;;;;;6.72;4.97;;;;;;;;;;5023010;28;20030;-79
2021/12/13 10:11:45;;;;;;;7.85;5.45;;;;;;;;;;5014308;28;20021;-81
2021/12/13 10:14:14;;;;;;;7.47;5.53;;;;;;;;;;5014407;28;20033;-77
2021/12/13 10:16:42;;;;;;;8.45;5.40;;;;;;;;;;5013619;28;20041;-77
2021/12/13 10:19:10;;;;;;;5.32;4.13;;;;;;;;;;5021182;28;20045;-82
2021/12/13 10:21:40;;;;;;;10.98;6.30;;;;;;;;;;5032918;28;20447;-75
2021/12/13 10:24:44;;;;;;;10.40;7.47;;;;;;;;;;5024598;28;20052;-84
2021/12/13 10:27:12;;;;;;;8.17;6.20;;;;;;;;;;4979446;28;20496;-80
2021/12/13 10:29:38;;;;;;;8.88;6.57;;;;;;;;;;4975174;28;20056;-82
2021/12/13 10:32:25;;;;;;;6.90;4.68;;;;;;;;;;4982556;28;20037;-76
2021/12/13 10:34:54;;;;;;;12.55;8.35;;;;;;;;;;4980231;28;20034;-80
2021/12/13 10:37:26;;;;;;;6.07;4.05;;;;;;;;;;4981393;28;20038;-83
2021/12/13 10:39:55;;;;;;;6.70;5.50;;;;;;;;;;4981418;28;20097;-82
2021/12/13 10:42:25;;;;;;;8.98;7.43;;;;;;;;;;4966343;28;20426;-80
2021/12/13 10:44:52;;;;;;;5.78;4.95;;;;;;;;;;4978477;28;20132;-79
2021/12/13 10:47:27;;;;;;;7.85;4.45;;;;;;;;;;4981164;28;20034;-82
2021/12/13 10:50:04;;;;;;;5.60;3.80;;;;;;;;;;4976997;28;20039;-83
2021/12/13 10:52:53;;;;;;;9.75;7.15;;;;;;;;;;5002815;28;20116;-80
2021/12/13 10:55:25;;;;;;;10.73;7.03;;;;;;;;;;5037533;28;20026;-86
2021/12/13 10:57:52;;;;;;;6.28;4.93;;;;;;;;;;5023188;28;20071;-81
2021/12/13 11:00:18;;;;;;;6.55;5.53;;;;;;;;;;5026540;28;20048;-79
2021/12/13 11:02:48;;;;;;;7.90;4.88;;;;;;;;;;5021233;28;20028;-72
2021/12/13 11:05:17;;;;;;;12.32;9.63;;;;;;;;;;5020077;28;20061;-82
2021/12/13 11:07:44;;;;;;;8.18;6.57;;;;;;;;;;5024270;28;20042;-85
2021/12/13 11:10:12;;;;;;;7.65;5.78;;;;;;;;;;5023092;28;20026;-83
2021/12/13 11:12:40;;;;;;;9.48;8.25;;;;;;;;;;5027684;28;20033;-81
2021/12/13 11:15:09;;;;;;;8.02;6.28;;;;;;;;;;5020269;28;20100;-77
2021/12/13 11:17:37;;;;;;;7.78;6.13;;;;;;;;;;5013380;28;20104;-81
2021/12/13 11:20:09;;;;;;;7.18;5.40;;;;;;;;;;5022486;28;20493;-81
2021/12/13 11:22:36;;;;;;;8.50;5.88;;;;;;;;;;5032393;28;20029;-82
2021/12/13 11:25:09;;;;;;;8.15;6.65;;;;;;;;;;5013907;28;20073;-81
2021/12/13 11:27:35;;;;;;;8.13;6.22;;;;;;;;;;5012911;28;20071;-80
2021/12/13 11:30:05;;;;;;;9.80;6.70;;;;;;;;;;5012791;28;20162;-83
2021/12/13 11:32:31;;;;;;;7.65;6.88;;;;;;;;;;5013106;28;20044;-77
2021/12/13 11:35:06;;;;;;;12.68;8.95;;;;;;;;;;5011631;28;20116;-82
2021/12/13 11:37:51;;;;;;;8.63;6.38;;;;;;;;;;5011798;28;20033;-79
2021/12/13 11:40:17;;;;;;;;;;;;;;;;;;5018028;28;20480;-82
2021/12/13 11:42:46;;;;;;;11.40;8.77;;;;;;;;;;5022649;28;19914;-81
2021/12/13 11:45:48;;;;;;;13.15;8.07;;;;;;;;;;5018211;28;20397;-82
2021/12/13 11:48:23;;;;;;;7.25;6.22;;;;;;;;;;5000975;28;20434;-81
2021/12/13 11:51:02;;;;;;;8.60;6.20;;;;;;;;;;4998540;28;20413;-82
2021/12/13 11:53:35;;;;;;;10.57;8.38;;;;;;;;;;4998754;28;20030;-78
2021/12/13 11:56:19;;;;;;;14.60;12.00;;;;;;;;;;5006355;28;20492;-80
2021/12/13 11:58:48;;;;;;;10.15;7.70;;;;;;;;;;5024433;28;20038;-81
2021/12/13 12:01:14;;;;;;;12.18;9.73;;;;;;;;;;5024455;28;20503;-83
2021/12/13 12:03:46;;;;;;;13.70;9.73;;;;;;;;;;5022466;28;20029;-79
2021/12/13 12:06:32;;;;;;;8.85;6.88;;;;;;;;;;5018091;28;20494;-79
2021/12/13 12:09:04;;;;;;;11.20;8.90;;;;;;;;;;5016395;28;20044;-76
2021/12/13 12:11:49;;;;;;;9.40;6.35;;;;;;;;;;5022218;28;20487;-81
2021/12/13 12:14:24;;;;;;;8.30;6.47;;;;;;;;;;5033962;28;20483;-80
2021/12/13 12:16:52;;;;;;;8.88;6.80;;;;;;;;;;5018043;28;20087;-79
2021/12/13 12:19:32;;;;;;;9.40;7.00;;;;;;;;;;5019504;28;20042;-80
2021/12/13 12:22:00;;;;;;;8.90;6.65;;;;;;;;;;5016404;28;20034;-90
2021/12/13 12:24:28;;;;;;;9.02;7.55;;;;;;;;;;5012223;28;20045;-82
2021/12/13 12:27:01;;;;;;;9.43;7.25;;;;;;;;;;5016219;28;20729;-83
2021/12/13 12:29:30;;;;;;;8.88;6.28;;;;;;;;;;5016674;28;20049;-80
2021/12/13 12:32:09;;;;;;;10.77;8.07;;;;;;;;;;5018653;28;20455;-80
2021/12/13 12:34:56;;;;;;;;;;;;;;;;;;;;;
2021/12/13 12:37:26;;;;;;;6.05;5.13;;;;;;;;;;5020047;28;20029;-79
2021/12/13 12:39:52;;;;;;;6.68;5.45;;;;;;;;;;5011734;28;20106;-79
2021/12/13 12:42:25;;;;;;;9.27;6.55;;;;;;;;;;5010421;28;20112;-78
2021/12/13 12:44:54;;;;;;;10.43;7.63;;;;;;;;;;5012025;28;20061;-81
2021/12/13 12:47:39;;;;;;;14.38;10.32;;;;;;;;;;5014514;28;20450;-78
2021/12/13 12:50:13;;;;;;;8.30;7.03;;;;;;;;;;5012334;28;20026;-78
2021/12/13 12:52:50;;;;;;;13.40;9.07;;;;;;;;;;5011551;28;20022;-79
2021/12/13 12:55:18;;;;;;;10.38;7.55;;;;;;;;;;5020437;28;20099;-81
2021/12/13 12:57:44;;;;;;;10.40;7.45;;;;;;;;;;5020676;28;20389;-76
2021/12/13 13:00:11;;;;;;;9.02;7.53;;;;;;;;;;5021125;28;20041;-81
2021/12/13 13:02:50;;;;;;;8.85;7.47;;;;;;;;;;5021968;28;20423;-79
2021/12/13 13:05:20;;;;;;;10.10;7.93;;;;;;;;;;5019599;28;20045;-79
2021/12/13 13:07:50;;;;;;;8.70;7.28;;;;;;;;;;5020220;28;20477;-79
2021/12/13 13:13:10;;;;;;;8.13;6.38;;;;;;;;;;5026115;28;20030;-79
2021/12/13 13:15:47;;;;;;;9.68;6.85;;;;;;;;;;5033113;28;20029;-85
2021/12/13 13:18:25;;;;;;;9.40;7.00;;;;;;;;;;5015110;28;20026;-81
2021/12/13 13:20:59;;;;;;;9.57;7.70;;;;;;;;;;5022208;28;20034;-80
2021/12/13 13:23:27;;;;;;;9.23;6.65;;;;;;;;;;5032154;28;20030;-79
2021/12/13 13:25:58;;;;;;;10.77;8.63;;;;;;;;;;5032387;28;20030;-83
2021/12/13 13:28:33;;;;;;;10.52;7.90;;;;;;;;;;5029102;28;20033;-82
2021/12/13 13:31:11;;;;;;;13.85;10.32;;;;;;;;;;5029509;28;20476;-80
2021/12/13 13:33:41;;;;;;;8.65;6.63;;;;;;;;;;5033774;28;20092;-82
2021/12/13 13:36:08;;;;;;;8.95;6.68;;;;;;;;;;4997314;28;20042;-84
2021/12/13 13:38:34;;;;;;;10.77;8.57;;;;;;;;;;5006764;28;20194;-84
2021/12/13 13:41:06;;;;;;;8.50;6.47;;;;;;;;;;4991770;28;20039;-84
2021/12/13 13:43:34;;;;;;;11.60;7.80;;;;;;;;;;5018347;28;20048;-82
2021/12/13 13:46:01;;;;;;;10.82;8.77;;;;;;;;;;5018228;28;20092;-82
2021/12/13 13:48:31;;;;;;;12.55;9.20;;;;;;;;;;5016154;28;20089;-83
2021/12/13 13:51:02;;;;;;;10.77;8.07;;;;;;;;;;5018608;28;20072;-83
2021/12/13 13:53:38;;;;;;;15.30;8.05;;;;;;;;;;5018257;28;20049;-82
2021/12/13 13:56:43;;;;;;;9.10;6.05;;;;;;;;;;5003245;28;20025;-87
2021/12/13 13:59:12;;;;;;;10.88;7.75;;;;;;;;;;4953098;28;20078;-82
2021/12/13 14:01:58;;;;;;;10.25;7.68;;;;;;;;;;4942313;29;20434;-82
2021/12/13 14:04:24;;;;;;;7.07;5.72;;;;;;;;;;5033369;28;20030;-76
2021/12/13 14:06:52;;;;;;;9.52;6.50;;;;;;;;;;5021953;28;20025;-77
2021/12/13 14:09:23;;;;;;;10.00;8.10;;;;;;;;;;5023921;28;20065;-81
2021/12/13 14:11:55;;;;;;;9.15;7.93;;;;;;;;;;5025748;28;20038;-81
2021/12/13 14:14:22;;;;;;;9.73;7.68;;;;;;;;;;5022514;28;20072;-77
2021/12/13 14:16:52;;;;;;;9.95;7.07;;;;;;;;;;5025031;28;20443;-83
2021/12/13 14:19:33;;;;;;;7.85;6.75;;;;;;;;;;5030644;28;20469;-85
2021/12/13 14:22:00;;;;;;;8.00;7.00;;;;;;;;;;5035545;28;20033;-78
2021/12/13 14:24:43;;;;;;;11.88;8.38;;;;;;;;;;5034279;28;20025;-85
2021/12/13 14:27:12;;;;;;;9.88;7.13;;;;;;;;;;5035241;28;20021;-82
2021/12/13 14:29:39;;;;;;;9.93;8.32;;;;;;;;;;5034894;28;20037;-80
2021/12/13 14:32:11;;;;;;;8.73;7.05;;;;;;;;;;5035945;28;20021;-80
2021/12/13 14:34:37;;;;;;;10.88;7.70;;;;;;;;;;5034894;28;20045;-83
2021/12/13 14:37:06;;;;;;;9.73;8.75;;;;;;;;;;5034035;28;20025;-83
2021/12/13 14:39:42;;;;;;;10.20;7.28;;;;;;;;;;5034988;28;20036;-82
2021/12/13 14:42:08;;;;;;;8.75;6.25;;;;;;;;;;5034938;28;20022;-78
2021/12/13 14:44:42;;;;;;;6.47;5.22;;;;;;;;;;5035100;28;20045;-83
2021/12/13 14:47:11;;;;;;;6.75;5.35;;;;;;;;;;5034055;28;20095;-79
2021/12/13 14:49:49;;;;;;;8.35;6.32;;;;;;;;;;5034839;28;20054;-81
2021/12/13 14:52:18;;;;;;;12.05;9.05;;;;;;;;;;5036486;28;20379;-80
2021/12/13 14:54:45;;;;;;;9.75;7.78;;;;;;;;;;5035807;28;20029;-80
2021/12/13 14:57:14;;;;;;;10.85;7.35;;;;;;;;;;5035946;28;20032;-85
2021/12/13 14:59:59;;;;;;;10.45;9.13;;;;;;;;;;5035814;28;20037;-78
2021/12/13 15:02:27;;;;;;;7.07;5.68;;;;;;;;;;5035556;28;20472;-79
2021/12/13 15:04:54;;;;;;;8.75;6.70;;;;;;;;;;5035447;28;20112;-84
2021/12/13 15:07:23;;;;;;;11.50;7.97;;;;;;;;;;5035789;28;20369;-82
2021/12/13 15:09:52;;;;;;;9.38;6.70;;;;;;;;;;5035582;28;20029;-78
2021/12/13 15:12:20;;;;;;;10.38;7.05;;;;;;;;;;5035819;28;20029;-81
2021/12/13 15:14:49;;;;;;;9.00;7.38;;;;;;;;;;5035308;28;20040;-82
2021/12/13 15:17:33;;;;;;;9.93;7.07;;;;;;;;;;5035191;28;20025;-84
2021/12/13 15:20:20;;;;;;;9.00;6.07;;;;;;;;;;5034230;28;20037;-77
2021/12/13 15:23:05;;;;;;;9.52;6.63;;;;;;;;;;5030427;28;20033;-80
2021/12/13 15:25:35;;;;;;;10.23;7.63;;;;;;;;;;5020212;28;20030;-81